sensor_id;sensor_type;location;lat;lon;timestamp;pressure;altitude;pressure_sealevel;temperature
67515;BMP280;60646;55.802;37.032;2023-11-21T00:00:01;99271.22;;;-2.52
67515;BMP280;60646;55.802;37.032;2023-11-21T00:02:31;99246.72;;;-2.62
67515;BMP280;60646;55.802;37.032;2023-11-21T00:04:56;99260.88;;;-2.59
67515;BMP280;60646;55.802;37.032;2023-11-21T00:07:22;99260.16;;;-2.63
67515;BMP280;60646;55.802;37.032;2023-11-21T00:09:48;99245.38;;;-2.73
67515;BMP280;60646;55.802;37.032;2023-11-21T00:12:14;99256.47;;;-2.66
67515;BMP280;60646;55.802;37.032;2023-11-21T00:14:40;99262.50;;;-2.72
67515;BMP280;60646;55.802;37.032;2023-11-21T00:17:06;99282.22;;;-2.64
67515;BMP280;60646;55.802;37.032;2023-11-21T00:19:32;99271.50;;;-2.73
67515;BMP280;60646;55.802;37.032;2023-11-21T00:21:58;99281.84;;;-2.66
67515;BMP280;60646;55.802;37.032;2023-11-21T00:24:25;99268.53;;;-2.75
67515;BMP280;60646;55.802;37.032;2023-11-21T00:26:51;99258.94;;;-2.82
67515;BMP280;60646;55.802;37.032;2023-11-21T00:29:18;99252.28;;;-2.86
67515;BMP280;60646;55.802;37.032;2023-11-21T00:31:45;99248.50;;;-2.85
67515;BMP280;60646;55.802;37.032;2023-11-21T00:34:12;99256.72;;;-2.83
67515;BMP280;60646;55.802;37.032;2023-11-21T00:36:38;99273.88;;;-2.82
67515;BMP280;60646;55.802;37.032;2023-11-21T00:39:05;99276.47;;;-2.82
67515;BMP280;60646;55.802;37.032;2023-11-21T00:41:32;99275.00;;;-2.83
67515;BMP280;60646;55.802;37.032;2023-11-21T00:43:58;99258.72;;;-2.98
67515;BMP280;60646;55.802;37.032;2023-11-21T00:46:25;99253.19;;;-3.04
67515;BMP280;60646;55.802;37.032;2023-11-21T00:48:54;99269.53;;;-2.96
67515;BMP280;60646;55.802;37.032;2023-11-21T00:51:20;99260.69;;;-3.06
67515;BMP280;60646;55.802;37.032;2023-11-21T00:53:47;99275.50;;;-2.95
67515;BMP280;60646;55.802;37.032;2023-11-21T00:56:13;99265.91;;;-3.06
67515;BMP280;60646;55.802;37.032;2023-11-21T00:58:39;99263.31;;;-3.06
67515;BMP280;60646;55.802;37.032;2023-11-21T01:01:09;99256.97;;;-3.05
67515;BMP280;60646;55.802;37.032;2023-11-21T01:03:35;99250.31;;;-3.13
67515;BMP280;60646;55.802;37.032;2023-11-21T01:06:01;99262.88;;;-3.00
67515;BMP280;60646;55.802;37.032;2023-11-21T01:08:27;99268.09;;;-3.00
67515;BMP280;60646;55.802;37.032;2023-11-21T01:10:52;99260.75;;;-3.13
67515;BMP280;60646;55.802;37.032;2023-11-21T01:13:19;99252.94;;;-3.13
67515;BMP280;60646;55.802;37.032;2023-11-21T01:15:45;99268.16;;;-3.08
67515;BMP280;60646;55.802;37.032;2023-11-21T01:18:10;99263.03;;;-3.15
67515;BMP280;60646;55.802;37.032;2023-11-21T01:20:36;99275.00;;;-3.17
67515;BMP280;60646;55.802;37.032;2023-11-21T01:23:02;99277.91;;;-3.12
67515;BMP280;60646;55.802;37.032;2023-11-21T01:25:28;99269.81;;;-3.21
67515;BMP280;60646;55.802;37.032;2023-11-21T01:27:53;99279.44;;;-3.14
67515;BMP280;60646;55.802;37.032;2023-11-21T01:30:19;99274.25;;;-3.18
67515;BMP280;60646;55.802;37.032;2023-11-21T01:32:45;99284.00;;;-3.22
67515;BMP280;60646;55.802;37.032;2023-11-21T01:35:11;99264.72;;;-3.35
67515;BMP280;60646;55.802;37.032;2023-11-21T01:37:38;99287.72;;;-3.19
67515;BMP280;60646;55.802;37.032;2023-11-21T01:40:05;99286.97;;;-3.20
67515;BMP280;60646;55.802;37.032;2023-11-21T01:42:35;99281.06;;;-3.27
67515;BMP280;60646;55.802;37.032;2023-11-21T01:45:01;99266.63;;;-3.39
67515;BMP280;60646;55.802;37.032;2023-11-21T01:47:33;99271.06;;;-3.36
67515;BMP280;60646;55.802;37.032;2023-11-21T01:49:59;99278.84;;;-3.29
67515;BMP280;60646;55.802;37.032;2023-11-21T01:52:27;99285.56;;;-3.28
67515;BMP280;60646;55.802;37.032;2023-11-21T01:54:55;99282.56;;;-3.30
67515;BMP280;60646;55.802;37.032;2023-11-21T01:57:21;99272.91;;;-3.33
67515;BMP280;60646;55.802;37.032;2023-11-21T01:59:49;99269.94;;;-3.35
67515;BMP280;60646;55.802;37.032;2023-11-21T02:02:15;99281.44;;;-3.29
67515;BMP280;60646;55.802;37.032;2023-11-21T02:04:42;99285.50;;;-3.24
67515;BMP280;60646;55.802;37.032;2023-11-21T02:07:27;99280.66;;;-3.26
67515;BMP280;60646;55.802;37.032;2023-11-21T02:09:53;99282.53;;;-3.26
67515;BMP280;60646;55.802;37.032;2023-11-21T02:12:18;99276.56;;;-3.27
67515;BMP280;60646;55.802;37.032;2023-11-21T02:14:44;99280.31;;;-3.28
67515;BMP280;60646;55.802;37.032;2023-11-21T02:17:12;99271.44;;;-3.34
67515;BMP280;60646;55.802;37.032;2023-11-21T02:19:39;99276.22;;;-3.29
67515;BMP280;60646;55.802;37.032;2023-11-21T02:22:30;99263.25;;;-3.36
67515;BMP280;60646;55.802;37.032;2023-11-21T02:24:56;99275.09;;;-3.28
67515;BMP280;60646;55.802;37.032;2023-11-21T02:27:23;99276.97;;;-3.28
67515;BMP280;60646;55.802;37.032;2023-11-21T02:29:49;99281.44;;;-3.29
67515;BMP280;60646;55.802;37.032;2023-11-21T02:32:16;99267.75;;;-3.40
67515;BMP280;60646;55.802;37.032;2023-11-21T02:34:45;99270.72;;;-3.38
67515;BMP280;60646;55.802;37.032;2023-11-21T02:37:11;99275.53;;;-3.33
67515;BMP280;60646;55.802;37.032;2023-11-21T02:39:38;99261.09;;;-3.41
67515;BMP280;60646;55.802;37.032;2023-11-21T02:42:04;99284.41;;;-3.27
67515;BMP280;60646;55.802;37.032;2023-11-21T02:44:29;99289.25;;;-3.25
67515;BMP280;60646;55.802;37.032;2023-11-21T02:46:55;99285.88;;;-3.26
67515;BMP280;60646;55.802;37.032;2023-11-21T02:49:23;99289.28;;;-3.29
67515;BMP280;60646;55.802;37.032;2023-11-21T02:51:49;99278.19;;;-3.40
67515;BMP280;60646;55.802;37.032;2023-11-21T02:54:15;99289.72;;;-3.34
67515;BMP280;60646;55.802;37.032;2023-11-21T02:56:42;99281.50;;;-3.36
67515;BMP280;60646;55.802;37.032;2023-11-21T02:59:08;99296.75;;;-3.27
67515;BMP280;60646;55.802;37.032;2023-11-21T03:01:34;99291.53;;;-3.31
67515;BMP280;60646;55.802;37.032;2023-11-21T03:04:00;99273.69;;;-3.36
67515;BMP280;60646;55.802;37.032;2023-11-21T03:06:27;99300.44;;;-3.25
67515;BMP280;60646;55.802;37.032;2023-11-21T03:08:53;99280.06;;;-3.37
67515;BMP280;60646;55.802;37.032;2023-11-21T03:11:19;99290.06;;;-3.32
67515;BMP280;60646;55.802;37.032;2023-11-21T03:13:44;99285.97;;;-3.33
67515;BMP280;60646;55.802;37.032;2023-11-21T03:16:11;99296.00;;;-3.28
67515;BMP280;60646;55.802;37.032;2023-11-21T03:18:38;99304.53;;;-3.24
67515;BMP280;60646;55.802;37.032;2023-11-21T03:21:05;99274.47;;;-3.39
67515;BMP280;60646;55.802;37.032;2023-11-21T03:23:31;99304.88;;;-3.22
67515;BMP280;60646;55.802;37.032;2023-11-21T03:25:58;99287.47;;;-3.32
67515;BMP280;60646;55.802;37.032;2023-11-21T03:28:25;99296.66;;;-3.20
67515;BMP280;60646;55.802;37.032;2023-11-21T03:30:52;99295.19;;;-3.25
67515;BMP280;60646;55.802;37.032;2023-11-21T03:33:18;99296.63;;;-3.17
67515;BMP280;60646;55.802;37.032;2023-11-21T03:35:44;99299.59;;;-3.15
67515;BMP280;60646;55.802;37.032;2023-11-21T03:38:10;99275.09;;;-3.28
67515;BMP280;60646;55.802;37.032;2023-11-21T03:40:36;99287.72;;;-3.19
67515;BMP280;60646;55.802;37.032;2023-11-21T03:43:02;99298.03;;;-3.09
67515;BMP280;60646;55.802;37.032;2023-11-21T03:45:28;99293.63;;;-3.15
67515;BMP280;60646;55.802;37.032;2023-11-21T03:47:54;99305.09;;;-3.06
67515;BMP280;60646;55.802;37.032;2023-11-21T03:50:20;99309.63;;;-3.10
67515;BMP280;60646;55.802;37.032;2023-11-21T03:52:45;99314.38;;;-3.01
67515;BMP280;60646;55.802;37.032;2023-11-21T03:55:11;99314.75;;;-3.03
67515;BMP280;60646;55.802;37.032;2023-11-21T03:57:41;99321.03;;;-2.96
67515;BMP280;60646;55.802;37.032;2023-11-21T04:00:08;99317.72;;;-3.00
67515;BMP280;60646;55.802;37.032;2023-11-21T04:02:38;99325.47;;;-2.93
67515;BMP280;60646;55.802;37.032;2023-11-21T04:05:05;99326.22;;;-2.93
67515;BMP280;60646;55.802;37.032;2023-11-21T04:07:33;99311.00;;;-3.01
67515;BMP280;60646;55.802;37.032;2023-11-21T04:09:59;99306.13;;;-2.99
67515;BMP280;60646;55.802;37.032;2023-11-21T04:12:25;99325.44;;;-2.90
67515;BMP280;60646;55.802;37.032;2023-11-21T04:14:51;99322.44;;;-2.88
67515;BMP280;60646;55.802;37.032;2023-11-21T04:17:19;99315.41;;;-2.91
67515;BMP280;60646;55.802;37.032;2023-11-21T04:19:46;99306.16;;;-3.03
67515;BMP280;60646;55.802;37.032;2023-11-21T04:22:12;99315.78;;;-2.93
67515;BMP280;60646;55.802;37.032;2023-11-21T04:24:38;99322.50;;;-2.95
67515;BMP280;60646;55.802;37.032;2023-11-21T04:27:04;99331.41;;;-2.89
67515;BMP280;60646;55.802;37.032;2023-11-21T04:29:29;99309.53;;;-3.03
67515;BMP280;60646;55.802;37.032;2023-11-21T04:31:55;99334.81;;;-2.92
67515;BMP280;60646;55.802;37.032;2023-11-21T04:34:21;99337.44;;;-2.92
67515;BMP280;60646;55.802;37.032;2023-11-21T04:36:47;99329.63;;;-2.99
67515;BMP280;60646;55.802;37.032;2023-11-21T04:39:13;99327.81;;;-3.03
67515;BMP280;60646;55.802;37.032;2023-11-21T04:41:39;99325.63;;;-3.08
67515;BMP280;60646;55.802;37.032;2023-11-21T04:44:06;99330.09;;;-3.08
67515;BMP280;60646;55.802;37.032;2023-11-21T04:46:32;99338.34;;;-3.10
67515;BMP280;60646;55.802;37.032;2023-11-21T04:48:58;99336.13;;;-3.11
67515;BMP280;60646;55.802;37.032;2023-11-21T04:51:24;99348.00;;;-3.07
67515;BMP280;60646;55.802;37.032;2023-11-21T04:53:50;99335.47;;;-3.19
67515;BMP280;60646;55.802;37.032;2023-11-21T04:56:16;99332.84;;;-3.19
67515;BMP280;60646;55.802;37.032;2023-11-21T04:58:42;99325.84;;;-3.29
67515;BMP280;60646;55.802;37.032;2023-11-21T05:01:08;99352.25;;;-3.20
67515;BMP280;60646;55.802;37.032;2023-11-21T05:03:34;99334.03;;;-3.30
67515;BMP280;60646;55.802;37.032;2023-11-21T05:06:00;99344.44;;;-3.27
67515;BMP280;60646;55.802;37.032;2023-11-21T05:08:25;99345.22;;;-3.30
67515;BMP280;60646;55.802;37.032;2023-11-21T05:10:52;99358.66;;;-3.28
67515;BMP280;60646;55.802;37.032;2023-11-21T05:13:20;99364.56;;;-3.24
67515;BMP280;60646;55.802;37.032;2023-11-21T05:15:46;99355.66;;;-3.30
67515;BMP280;60646;55.802;37.032;2023-11-21T05:18:12;99369.44;;;-3.26
67515;BMP280;60646;55.802;37.032;2023-11-21T05:20:39;99369.84;;;-3.27
67515;BMP280;60646;55.802;37.032;2023-11-21T05:23:07;99362.38;;;-3.29
67515;BMP280;60646;55.802;37.032;2023-11-21T05:25:34;99356.88;;;-3.38
67515;BMP280;60646;55.802;37.032;2023-11-21T05:28:00;99356.50;;;-3.40
67515;BMP280;60646;55.802;37.032;2023-11-21T05:30:27;99355.03;;;-3.41
67515;BMP280;60646;55.802;37.032;2023-11-21T05:32:53;99348.38;;;-3.45
67515;BMP280;60646;55.802;37.032;2023-11-21T05:35:19;99361.75;;;-3.43
67515;BMP280;60646;55.802;37.032;2023-11-21T05:37:47;99371.00;;;-3.35
67515;BMP280;60646;55.802;37.032;2023-11-21T05:40:13;99352.44;;;-3.41
67515;BMP280;60646;55.802;37.032;2023-11-21T05:42:39;99359.47;;;-3.38
67515;BMP280;60646;55.802;37.032;2023-11-21T05:45:07;99348.69;;;-3.40
67515;BMP280;60646;55.802;37.032;2023-11-21T05:47:41;99353.91;;;-3.40
67515;BMP280;60646;55.802;37.032;2023-11-21T05:50:08;99342.81;;;-3.51
67515;BMP280;60646;55.802;37.032;2023-11-21T05:52:41;99367.34;;;-3.41
67515;BMP280;60646;55.802;37.032;2023-11-21T05:55:07;99356.59;;;-3.51
67515;BMP280;60646;55.802;37.032;2023-11-21T05:57:34;99367.72;;;-3.43
67515;BMP280;60646;55.802;37.032;2023-11-21T06:00:13;99369.22;;;-3.42
67515;BMP280;60646;55.802;37.032;2023-11-21T06:02:49;99372.94;;;-3.43
67515;BMP280;60646;55.802;37.032;2023-11-21T06:05:25;99356.25;;;-3.56
67515;BMP280;60646;55.802;37.032;2023-11-21T06:07:52;99359.97;;;-3.54
67515;BMP280;60646;55.802;37.032;2023-11-21T06:10:20;99360.31;;;-3.52
67515;BMP280;60646;55.802;37.032;2023-11-21T06:12:46;99386.00;;;-3.43
67515;BMP280;60646;55.802;37.032;2023-11-21T06:15:12;99370.81;;;-3.55
67515;BMP280;60646;55.802;37.032;2023-11-21T06:17:42;99374.47;;;-3.49
67515;BMP280;60646;55.802;37.032;2023-11-21T06:20:10;99358.88;;;-3.56
67515;BMP280;60646;55.802;37.032;2023-11-21T06:22:41;99369.22;;;-3.42
67515;BMP280;60646;55.802;37.032;2023-11-21T06:25:08;99369.25;;;-3.49
67515;BMP280;60646;55.802;37.032;2023-11-21T06:27:37;99365.50;;;-3.48
67515;BMP280;60646;55.802;37.032;2023-11-21T06:30:04;99371.47;;;-3.44
67515;BMP280;60646;55.802;37.032;2023-11-21T06:32:31;99380.41;;;-3.45
67515;BMP280;60646;55.802;37.032;2023-11-21T06:34:57;99367.41;;;-3.52
67515;BMP280;60646;55.802;37.032;2023-11-21T06:37:28;99373.72;;;-3.46
67515;BMP280;60646;55.802;37.032;2023-11-21T06:39:55;99373.72;;;-3.46
67515;BMP280;60646;55.802;37.032;2023-11-21T06:42:22;99383.31;;;-3.36
67515;BMP280;60646;55.802;37.032;2023-11-21T06:44:50;99388.53;;;-3.36
67515;BMP280;60646;55.802;37.032;2023-11-21T06:47:20;99384.81;;;-3.35
67515;BMP280;60646;55.802;37.032;2023-11-21T06:49:46;99388.53;;;-3.36
67515;BMP280;60646;55.802;37.032;2023-11-21T06:52:13;99373.72;;;-3.46
67515;BMP280;60646;55.802;37.032;2023-11-21T06:54:40;99363.28;;;-3.50
67515;BMP280;60646;55.802;37.032;2023-11-21T06:57:06;99391.50;;;-3.34
67515;BMP280;60646;55.802;37.032;2023-11-21T06:59:32;99341.69;;;-3.50
67515;BMP280;60646;55.802;37.032;2023-11-21T07:01:57;99372.16;;;-3.40
67515;BMP280;60646;55.802;37.032;2023-11-21T07:04:23;99374.78;;;-3.36
67515;BMP280;60646;55.802;37.032;2023-11-21T07:06:54;99375.84;;;-3.34
67515;BMP280;60646;55.802;37.032;2023-11-21T07:09:20;99382.16;;;-3.31
67515;BMP280;60646;55.802;37.032;2023-11-21T07:11:49;99397.38;;;-3.23
67515;BMP280;60646;55.802;37.032;2023-11-21T07:14:16;99374.69;;;-3.29
67515;BMP280;60646;55.802;37.032;2023-11-21T07:16:43;99399.25;;;-3.20
67515;BMP280;60646;55.802;37.032;2023-11-21T07:19:09;99380.25;;;-3.24
67515;BMP280;60646;55.802;37.032;2023-11-21T07:21:36;99395.06;;;-3.10
67515;BMP280;60646;55.802;37.032;2023-11-21T07:24:02;99396.53;;;-3.09
67515;BMP280;60646;55.802;37.032;2023-11-21T07:26:32;99405.81;;;-3.05
67515;BMP280;60646;55.802;37.032;2023-11-21T07:28:59;99375.38;;;-3.18
67515;BMP280;60646;55.802;37.032;2023-11-21T07:31:26;99404.66;;;-3.04
67515;BMP280;60646;55.802;37.032;2023-11-21T07:33:51;99390.50;;;-3.03
67515;BMP280;60646;55.802;37.032;2023-11-21T07:36:19;99394.22;;;-3.00
67515;BMP280;60646;55.802;37.032;2023-11-21T07:38:46;99379.03;;;-3.12
67515;BMP280;60646;55.802;37.032;2023-11-21T07:41:13;99396.84;;;-3.04
67515;BMP280;60646;55.802;37.032;2023-11-21T07:43:44;99385.34;;;-3.10
67515;BMP280;60646;55.802;37.032;2023-11-21T07:46:11;99388.31;;;-3.08
67515;BMP280;60646;55.802;37.032;2023-11-21T07:48:39;99390.53;;;-3.06
67515;BMP280;60646;55.802;37.032;2023-11-21T07:51:05;99403.09;;;-2.94
67515;BMP280;60646;55.802;37.032;2023-11-21T07:53:32;99404.59;;;-2.93
67515;BMP280;60646;55.802;37.032;2023-11-21T07:56:03;99404.97;;;-2.91
67515;BMP280;60646;55.802;37.032;2023-11-21T07:58:29;99404.59;;;-2.93
67515;BMP280;60646;55.802;37.032;2023-11-21T08:00:54;99391.91;;;-2.91
67515;BMP280;60646;55.802;37.032;2023-11-21T08:03:20;99400.03;;;-2.85
67515;BMP280;60646;55.802;37.032;2023-11-21T08:05:47;99400.72;;;-2.81
67515;BMP280;60646;55.802;37.032;2023-11-21T08:08:13;99411.03;;;-2.67
67515;BMP280;60646;55.802;37.032;2023-11-21T08:10:38;99403.56;;;-2.65
67515;BMP280;60646;55.802;37.032;2023-11-21T08:13:05;99386.38;;;-2.66
67515;BMP280;60646;55.802;37.032;2023-11-21T08:15:32;99383.72;;;-2.59
67515;BMP280;60646;55.802;37.032;2023-11-21T08:17:59;99394.00;;;-2.45
67515;BMP280;60646;55.802;37.032;2023-11-21T08:20:25;99384.97;;;-2.40
67515;BMP280;60646;55.802;37.032;2023-11-21T08:22:51;99371.16;;;-2.41
67515;BMP280;60646;55.802;37.032;2023-11-21T08:25:18;99372.47;;;-2.26
67515;BMP280;60646;55.802;37.032;2023-11-21T08:27:46;99379.44;;;-2.15
67515;BMP280;60646;55.802;37.032;2023-11-21T08:30:12;99379.00;;;-2.10
67515;BMP280;60646;55.802;37.032;2023-11-21T08:32:40;99371.41;;;-2.01
67515;BMP280;60646;55.802;37.032;2023-11-21T08:35:07;99372.88;;;-2.00
67515;BMP280;60646;55.802;37.032;2023-11-21T08:37:52;99366.06;;;-1.94
67515;BMP280;60646;55.802;37.032;2023-11-21T08:40:21;99371.19;;;-1.87
67515;BMP280;60646;55.802;37.032;2023-11-21T08:42:48;99362.19;;;-1.86
67515;BMP280;60646;55.802;37.032;2023-11-21T08:45:14;99359.25;;;-1.88
67515;BMP280;60646;55.802;37.032;2023-11-21T08:47:40;99361.50;;;-1.90
67515;BMP280;60646;55.802;37.032;2023-11-21T08:50:07;99352.53;;;-1.89
67515;BMP280;60646;55.802;37.032;2023-11-21T08:52:38;99348.09;;;-1.92
67515;BMP280;60646;55.802;37.032;2023-11-21T08:55:08;99369.16;;;-1.76
67515;BMP280;60646;55.802;37.032;2023-11-21T08:57:37;99358.47;;;-1.85
67515;BMP280;60646;55.802;37.032;2023-11-21T09:00:03;99353.88;;;-1.78
67515;BMP280;60646;55.802;37.032;2023-11-21T09:02:33;99355.69;;;-1.74
67515;BMP280;60646;55.802;37.032;2023-11-21T09:05:21;99373.03;;;-1.61
67515;BMP280;60646;55.802;37.032;2023-11-21T09:07:47;99359.66;;;-1.66
67515;BMP280;60646;55.802;37.032;2023-11-21T09:10:14;99365.53;;;-1.59
67515;BMP280;60646;55.802;37.032;2023-11-21T09:12:40;99345.78;;;-1.63
67515;BMP280;60646;55.802;37.032;2023-11-21T09:15:07;99357.94;;;-1.53
67515;BMP280;60646;55.802;37.032;2023-11-21T09:17:35;99382.63;;;-1.51
67515;BMP280;60646;55.802;37.032;2023-11-21T09:20:01;99361.78;;;-1.58
67515;BMP280;60646;55.802;37.032;2023-11-21T09:22:31;99379.53;;;-1.46
67515;BMP280;60646;55.802;37.032;2023-11-21T09:24:57;99369.63;;;-1.58
67515;BMP280;60646;55.802;37.032;2023-11-21T09:27:24;99363.03;;;-1.66
67515;BMP280;60646;55.802;37.032;2023-11-21T09:29:51;99387.16;;;-1.55
67515;BMP280;60646;55.802;37.032;2023-11-21T09:32:19;99369.41;;;-1.67
67515;BMP280;60646;55.802;37.032;2023-11-21T09:34:48;99384.19;;;-1.57
67515;BMP280;60646;55.802;37.032;2023-11-21T09:37:14;99373.84;;;-1.64
67515;BMP280;60646;55.802;37.032;2023-11-21T09:39:40;99389.56;;;-1.64
67515;BMP280;60646;55.802;37.032;2023-11-21T09:42:17;99368.72;;;-1.71
67515;BMP280;60646;55.802;37.032;2023-11-21T09:45:03;99391.69;;;-1.59
67515;BMP280;60646;55.802;37.032;2023-11-21T09:47:35;99387.94;;;-1.58
67515;BMP280;60646;55.802;37.032;2023-11-21T09:50:02;99392.44;;;-1.58
67515;BMP280;60646;55.802;37.032;2023-11-21T09:52:31;99385.00;;;-1.60
67515;BMP280;60646;55.802;37.032;2023-11-21T09:55:01;99387.84;;;-1.51
67515;BMP280;60646;55.802;37.032;2023-11-21T09:57:29;99389.78;;;-1.55
67515;BMP280;60646;55.802;37.032;2023-11-21T09:59:56;99383.13;;;-1.59
67515;BMP280;60646;55.802;37.032;2023-11-21T10:02:27;99383.53;;;-1.61
67515;BMP280;60646;55.802;37.032;2023-11-21T10:04:59;99376.81;;;-1.62
67515;BMP280;60646;55.802;37.032;2023-11-21T10:07:26;99378.28;;;-1.61
67515;BMP280;60646;55.802;37.032;2023-11-21T10:09:52;99396.72;;;-1.45
67515;BMP280;60646;55.802;37.032;2023-11-21T10:12:19;99395.25;;;-1.46
67515;BMP280;60646;55.802;37.032;2023-11-21T10:14:48;99414.94;;;-1.38
67515;BMP280;60646;55.802;37.032;2023-11-21T10:17:15;99392.97;;;-1.44
67515;BMP280;60646;55.802;37.032;2023-11-21T10:19:46;99395.88;;;-1.38
67515;BMP280;60646;55.802;37.032;2023-11-21T10:22:14;99412.91;;;-1.26
67515;BMP280;60646;55.802;37.032;2023-11-21T10:24:40;99409.28;;;-1.33
67515;BMP280;60646;55.802;37.032;2023-11-21T10:27:08;99398.81;;;-1.33
67515;BMP280;60646;55.802;37.032;2023-11-21T10:29:34;99421.84;;;-1.24
67515;BMP280;60646;55.802;37.032;2023-11-21T10:32:04;99411.91;;;-1.33
67515;BMP280;60646;55.802;37.032;2023-11-21T10:34:31;99424.19;;;-1.29
67515;BMP280;60646;55.802;37.032;2023-11-21T10:36:57;99439.78;;;-1.22
67515;BMP280;60646;55.802;37.032;2023-11-21T10:39:24;99429.28;;;-1.22
67515;BMP280;60646;55.802;37.032;2023-11-21T10:42:17;99432.34;;;-1.24
67515;BMP280;60646;55.802;37.032;2023-11-21T10:44:45;99420.13;;;-1.34
67515;BMP280;60646;55.802;37.032;2023-11-21T10:47:11;99424.78;;;-1.22
67515;BMP280;60646;55.802;37.032;2023-11-21T10:54:09;99426.28;;;-1.21
67515;BMP280;60646;55.802;37.032;2023-11-21T10:56:36;99421.22;;;-1.32
67515;BMP280;60646;55.802;37.032;2023-11-21T10:59:10;99417.81;;;-1.28
67515;BMP280;60646;55.802;37.032;2023-11-21T11:01:44;99423.06;;;-1.28
67515;BMP280;60646;55.802;37.032;2023-11-21T11:04:11;99428.97;;;-1.24
67515;BMP280;60646;55.802;37.032;2023-11-21T11:06:54;99431.91;;;-1.22
67515;BMP280;60646;55.802;37.032;2023-11-21T11:09:26;99438.31;;;-1.23
67515;BMP280;60646;55.802;37.032;2023-11-21T11:11:52;99417.47;;;-1.30
67515;BMP280;60646;55.802;37.032;2023-11-21T11:14:18;99420.84;;;-1.34
67515;BMP280;60646;55.802;37.032;2023-11-21T11:16:45;99430.91;;;-1.28
67515;BMP280;60646;55.802;37.032;2023-11-21T11:19:11;99442.88;;;-1.27
67515;BMP280;60646;55.802;37.032;2023-11-21T11:27:23;99445.19;;;-1.33
67515;BMP280;60646;55.802;37.032;2023-11-21T11:37:55;99430.31;;;-1.40
67515;BMP280;60646;55.802;37.032;2023-11-21T11:40:22;99431.84;;;-1.42
67515;BMP280;60646;55.802;37.032;2023-11-21T11:43:06;99437.03;;;-1.39
67515;BMP280;60646;55.802;37.032;2023-11-21T11:45:34;99449.31;;;-1.32
67515;BMP280;60646;55.802;37.032;2023-11-21T11:48:02;99449.06;;;-1.41
67515;BMP280;60646;55.802;37.032;2023-11-21T11:50:29;99437.88;;;-1.45
67515;BMP280;60646;55.802;37.032;2023-11-21T11:53:12;99447.63;;;-1.46
67515;BMP280;60646;55.802;37.032;2023-11-21T11:55:38;99462.41;;;-1.36
67515;BMP280;60646;55.802;37.032;2023-11-21T11:58:06;99462.09;;;-1.38
67515;BMP280;60646;55.802;37.032;2023-11-21T12:03:01;99461.09;;;-1.47
67515;BMP280;60646;55.802;37.032;2023-11-21T12:05:31;99462.28;;;-1.52
67515;BMP280;60646;55.802;37.032;2023-11-21T12:08:06;99469.28;;;-1.45
67515;BMP280;60646;55.802;37.032;2023-11-21T12:10:37;99455.28;;;-1.58
67515;BMP280;60646;55.802;37.032;2023-11-21T12:13:06;99475.34;;;-1.48
67515;BMP280;60646;55.802;37.032;2023-11-21T12:15:36;99478.34;;;-1.50
67515;BMP280;60646;55.802;37.032;2023-11-21T12:18:03;99459.88;;;-1.66
67515;BMP280;60646;55.802;37.032;2023-11-21T12:20:30;99469.56;;;-1.63
67515;BMP280;60646;55.802;37.032;2023-11-21T12:22:58;99462.84;;;-1.64
67515;BMP280;60646;55.802;37.032;2023-11-21T12:25:28;99471.84;;;-1.65
67515;BMP280;60646;55.802;37.032;2023-11-21T12:27:56;99482.56;;;-1.56
67515;BMP280;60646;55.802;37.032;2023-11-21T12:30:25;99462.94;;;-1.71
67515;BMP280;60646;55.802;37.032;2023-11-21T12:32:55;99483.75;;;-1.60
67515;BMP280;60646;55.802;37.032;2023-11-21T12:35:25;99484.50;;;-1.60
67515;BMP280;60646;55.802;37.032;2023-11-21T12:37:53;99488.56;;;-1.59
67515;BMP280;60646;55.802;37.032;2023-11-21T12:40:37;99488.97;;;-1.60
67515;BMP280;60646;55.802;37.032;2023-11-21T12:43:03;99473.41;;;-1.71
67515;BMP280;60646;55.802;37.032;2023-11-21T12:46:07;99471.94;;;-1.72
67515;BMP280;60646;55.802;37.032;2023-11-21T12:48:37;99484.53;;;-1.63
67515;BMP280;60646;55.802;37.032;2023-11-21T12:51:06;99487.56;;;-1.65
67515;BMP280;60646;55.802;37.032;2023-11-21T12:53:32;99485.31;;;-1.66
67515;BMP280;60646;55.802;37.032;2023-11-21T12:56:09;99492.84;;;-1.68
67515;BMP280;60646;55.802;37.032;2023-11-21T12:58:37;99487.63;;;-1.72
67515;BMP280;60646;55.802;37.032;2023-11-21T13:04:33;99499.53;;;-1.67
67515;BMP280;60646;55.802;37.032;2023-11-21T13:07:04;99498.47;;;-1.70
67515;BMP280;60646;55.802;37.032;2023-11-21T13:09:38;99505.50;;;-1.67
67515;BMP280;60646;55.802;37.032;2023-11-21T13:12:04;99486.94;;;-1.76
67515;BMP280;60646;55.802;37.032;2023-11-21T13:14:34;99500.28;;;-1.67
67515;BMP280;60646;55.802;37.032;2023-11-21T13:16:59;99499.59;;;-1.71
67515;BMP280;60646;55.802;37.032;2023-11-21T13:19:25;99508.50;;;-1.65
67515;BMP280;60646;55.802;37.032;2023-11-21T13:21:52;99497.34;;;-1.69
67515;BMP280;60646;55.802;37.032;2023-11-21T13:24:20;99506.56;;;-1.61
67515;BMP280;60646;55.802;37.032;2023-11-21T13:26:47;99493.16;;;-1.66
67515;BMP280;60646;55.802;37.032;2023-11-21T13:29:14;99508.44;;;-1.61
67515;BMP280;60646;55.802;37.032;2023-11-21T13:31:41;99507.63;;;-1.58
67515;BMP280;60646;55.802;37.032;2023-11-21T13:34:07;99504.03;;;-1.68
67515;BMP280;60646;55.802;37.032;2023-11-21T13:36:34;99496.66;;;-1.73
67515;BMP280;60646;55.802;37.032;2023-11-21T13:39:00;99504.03;;;-1.68
67515;BMP280;60646;55.802;37.032;2023-11-21T13:41:33;99519.97;;;-1.59
67515;BMP280;60646;55.802;37.032;2023-11-21T13:43:59;99517.03;;;-1.61
67515;BMP280;60646;55.802;37.032;2023-11-21T13:46:42;99523.41;;;-1.62
67515;BMP280;60646;55.802;37.032;2023-11-21T13:49:07;99516.72;;;-1.66
67515;BMP280;60646;55.802;37.032;2023-11-21T13:51:54;99515.69;;;-1.72
67515;BMP280;60646;55.802;37.032;2023-11-21T13:54:20;99520.53;;;-1.71
67515;BMP280;60646;55.802;37.032;2023-11-21T13:57:07;99513.56;;;-1.81
67515;BMP280;60646;55.802;37.032;2023-11-21T13:59:33;99519.59;;;-1.84
67515;BMP280;60646;55.802;37.032;2023-11-21T14:01:59;99529.66;;;-1.86
67515;BMP280;60646;55.802;37.032;2023-11-21T14:04:26;99543.13;;;-1.84
67515;BMP280;60646;55.802;37.032;2023-11-21T14:07:15;99537.50;;;-1.86
67515;BMP280;60646;55.802;37.032;2023-11-21T14:10:13;99516.38;;;-1.99
67515;BMP280;60646;55.802;37.032;2023-11-21T14:12:39;99532.66;;;-1.84
67515;BMP280;60646;55.802;37.032;2023-11-21T14:15:08;99526.72;;;-1.88
67515;BMP280;60646;55.802;37.032;2023-11-21T14:17:35;99532.69;;;-1.88
67515;BMP280;60646;55.802;37.032;2023-11-21T14:20:04;99531.19;;;-1.85
67515;BMP280;60646;55.802;37.032;2023-11-21T14:22:31;99523.34;;;-1.85
67515;BMP280;60646;55.802;37.032;2023-11-21T14:24:57;99543.03;;;-1.77